Time;durP1;ratioP1;P1;durP2;ratioP2;P2;SDS_P1;SDS_P2;PMS_P1;PMS_P2;Temp;Humidity;BMP_temperature;BMP_pressure;BME280_temperature;BME280_humidity;BME280_pressure;Samples;Min_cycle;Max_cycle;Signal;HPM_P1;HPM_P2
2023/05/13 00:01:49;;;;;;;70.68;21.45;;;;;;;;;;5081272;28;20461;-65
2023/05/13 00:04:16;;;;;;;79.57;25.88;;;;;;;;;;5080875;28;20433;-64
2023/05/13 00:06:42;;;;;;;73.38;23.77;;;;;;;;;;5083318;28;20051;-65
2023/05/13 00:09:09;;;;;;;61.67;20.70;;;;;;;;;;5082130;28;20036;-64
2023/05/13 00:11:35;;;;;;;60.78;21.17;;;;;;;;;;5079206;28;20068;-65
2023/05/13 00:14:02;;;;;;;64.88;22.27;;;;;;;;;;5085829;28;20054;-65
2023/05/13 00:16:29;;;;;;;86.70;22.67;;;;;;;;;;5079531;28;20492;-65
2023/05/13 00:18:56;;;;;;;64.45;21.50;;;;;;;;;;5082268;28;20149;-66
2023/05/13 00:21:23;;;;;;;111.18;23.65;;;;;;;;;;5079653;28;20059;-66
2023/05/13 00:23:50;;;;;;;53.97;18.70;;;;;;;;;;5078310;28;20040;-65
2023/05/13 00:26:16;;;;;;;64.28;21.15;;;;;;;;;;5080629;28;20110;-66
2023/05/13 00:28:46;;;;;;;66.65;19.23;;;;;;;;;;5079238;28;20036;-66
2023/05/13 00:31:12;;;;;;;61.70;20.58;;;;;;;;;;5083693;28;20063;-66
2023/05/13 00:33:39;;;;;;;101.70;22.15;;;;;;;;;;5082997;28;20115;-65
2023/05/13 00:36:06;;;;;;;49.65;19.02;;;;;;;;;;5081847;28;20075;-65
2023/05/13 00:38:33;;;;;;;56.90;20.95;;;;;;;;;;5078484;28;20029;-67
2023/05/13 00:41:01;;;;;;;69.53;23.42;;;;;;;;;;5084450;28;20038;-66
2023/05/13 00:43:28;;;;;;;83.22;22.27;;;;;;;;;;5081330;28;20457;-67
2023/05/13 00:45:54;;;;;;;87.25;21.83;;;;;;;;;;5082428;28;20570;-65
2023/05/13 00:48:23;;;;;;;64.93;18.58;;;;;;;;;;5081759;28;20114;-66
2023/05/13 00:50:50;;;;;;;68.30;20.30;;;;;;;;;;5085388;28;20488;-65
2023/05/13 00:53:17;;;;;;;62.45;18.38;;;;;;;;;;5079936;28;20043;-65
2023/05/13 00:55:44;;;;;;;66.63;18.95;;;;;;;;;;5082020;28;20053;-66
2023/05/13 00:58:10;;;;;;;47.08;19.20;;;;;;;;;;5080724;28;20051;-65
2023/05/13 01:00:46;;;;;;;102.50;20.83;;;;;;;;;;5081917;28;20426;-65
2023/05/13 01:03:17;;;;;;;60.03;18.02;;;;;;;;;;5079434;28;20612;-68
2023/05/13 01:05:53;;;;;;;56.92;17.95;;;;;;;;;;5079425;28;20072;-65
2023/05/13 01:08:38;;;;;;;59.85;19.00;;;;;;;;;;5081786;28;20052;-65
2023/05/13 01:11:34;;;;;;;73.53;19.48;;;;;;;;;;5081512;28;20036;-66
2023/05/13 01:14:12;;;;;;;65.70;19.00;;;;;;;;;;5060293;28;20081;-65
2023/05/13 01:16:41;;;;;;;73.40;19.95;;;;;;;;;;5075388;28;20048;-65
2023/05/13 01:19:20;;;;;;;54.50;18.52;;;;;;;;;;5081224;28;20070;-65
2023/05/13 01:21:53;;;;;;;69.32;20.55;;;;;;;;;;5080099;28;20056;-67
2023/05/13 01:24:21;;;;;;;70.93;19.35;;;;;;;;;;5081012;28;20044;-70
2023/05/13 01:26:48;;;;;;;68.45;19.90;;;;;;;;;;5083602;28;20044;-65
2023/05/13 01:29:15;;;;;;;54.88;19.27;;;;;;;;;;5080029;28;20068;-67
2023/05/13 01:31:43;;;;;;;72.20;23.20;;;;;;;;;;5080514;28;20045;-64
2023/05/13 01:34:10;;;;;;;79.55;24.42;;;;;;;;;;5079501;28;20662;-65
2023/05/13 01:36:38;;;;;;;105.82;26.17;;;;;;;;;;5082018;28;20481;-64
2023/05/13 01:39:06;;;;;;;62.38;20.73;;;;;;;;;;5079949;28;20040;-66
2023/05/13 01:41:32;;;;;;;68.60;21.80;;;;;;;;;;5080837;28;20064;-65
2023/05/13 01:44:00;;;;;;;61.03;21.00;;;;;;;;;;5079688;28;20044;-66
2023/05/13 01:46:27;;;;;;;63.15;19.67;;;;;;;;;;5079428;28;20036;-66
2023/05/13 01:48:53;;;;;;;57.55;20.23;;;;;;;;;;5081628;28;20055;-65
2023/05/13 01:51:20;;;;;;;68.68;21.58;;;;;;;;;;5079168;28;20035;-65
2023/05/13 01:53:47;;;;;;;62.33;21.00;;;;;;;;;;5084336;28;20066;-66
2023/05/13 01:56:14;;;;;;;55.20;18.98;;;;;;;;;;5081012;28;20448;-66
2023/05/13 01:58:41;;;;;;;63.78;21.17;;;;;;;;;;5068161;28;20048;-67
2023/05/13 02:01:33;;;;;;;540.85;52.97;;;;;;;;;;5140408;22;20066;-70
2023/05/13 02:04:00;;;;;;;97.45;23.75;;;;;;;;;;5049566;28;20041;-70
2023/05/13 02:06:27;;;;;;;96.40;22.58;;;;;;;;;;5033089;28;20037;-69
2023/05/13 02:08:53;;;;;;;86.50;21.85;;;;;;;;;;5047195;28;20053;-69
2023/05/13 02:11:21;;;;;;;55.15;20.23;;;;;;;;;;5026298;28;20478;-68
2023/05/13 02:13:47;;;;;;;66.00;20.98;;;;;;;;;;5049957;28;20040;-68
2023/05/13 02:16:16;;;;;;;80.97;20.73;;;;;;;;;;5047691;28;20044;-68
2023/05/13 02:18:43;;;;;;;77.97;18.50;;;;;;;;;;5048357;28;20051;-69
2023/05/13 02:21:09;;;;;;;53.40;18.88;;;;;;;;;;5026924;28;20045;-68
2023/05/13 02:23:37;;;;;;;49.58;18.40;;;;;;;;;;5049661;28;20045;-69
2023/05/13 02:26:03;;;;;;;53.42;17.90;;;;;;;;;;5050769;28;20033;-69
2023/05/13 02:28:30;;;;;;;69.03;19.58;;;;;;;;;;5048560;28;20115;-70
2023/05/13 02:30:56;;;;;;;63.22;18.65;;;;;;;;;;5045951;28;20122;-70
2023/05/13 02:33:23;;;;;;;87.57;22.63;;;;;;;;;;5047548;28;20494;-71
2023/05/13 02:35:50;;;;;;;54.78;18.95;;;;;;;;;;5033233;28;20039;-69
2023/05/13 02:38:17;;;;;;;64.65;19.48;;;;;;;;;;5047888;28;20064;-69
2023/05/13 02:40:44;;;;;;;66.78;19.95;;;;;;;;;;5033923;28;20052;-69
2023/05/13 02:43:10;;;;;;;66.55;19.83;;;;;;;;;;5035271;28;20037;-69
2023/05/13 02:45:46;;;;;;;85.97;19.40;;;;;;;;;;5048122;28;20033;-69
2023/05/13 02:48:14;;;;;;;47.33;19.55;;;;;;;;;;5026363;28;20447;-69
2023/05/13 02:50:41;;;;;;;65.45;19.38;;;;;;;;;;5035333;28;20041;-69
2023/05/13 02:53:09;;;;;;;57.95;20.67;;;;;;;;;;5031360;28;20393;-69
2023/05/13 02:55:40;;;;;;;56.22;19.80;;;;;;;;;;5026280;28;20076;-70
2023/05/13 02:58:07;;;;;;;77.43;20.35;;;;;;;;;;5045716;28;20037;-69
2023/05/13 03:00:34;;;;;;;57.55;18.67;;;;;;;;;;5033472;28;20089;-70
2023/05/13 03:03:01;;;;;;;52.53;19.15;;;;;;;;;;5024380;28;20049;-69
2023/05/13 03:05:27;;;;;;;50.78;19.17;;;;;;;;;;5034695;28;20037;-69
2023/05/13 03:07:56;;;;;;;48.08;17.90;;;;;;;;;;5014466;28;20053;-70
2023/05/13 03:10:24;;;;;;;60.30;19.90;;;;;;;;;;5046677;28;20366;-70
2023/05/13 03:12:51;;;;;;;66.47;18.38;;;;;;;;;;5044369;28;20033;-70
2023/05/13 03:15:17;;;;;;;47.30;17.23;;;;;;;;;;5045704;28;20103;-70
2023/05/13 03:17:44;;;;;;;74.55;18.52;;;;;;;;;;5048492;28;20041;-70
2023/05/13 03:20:11;;;;;;;46.53;16.25;;;;;;;;;;5032098;28;20086;-70
2023/05/13 03:22:37;;;;;;;61.25;17.33;;;;;;;;;;5046193;28;20516;-70
2023/05/13 03:25:05;;;;;;;56.75;18.67;;;;;;;;;;5034436;28;20037;-69
2023/05/13 03:27:39;;;;;;;91.97;19.85;;;;;;;;;;5046330;28;20045;-70
2023/05/13 03:30:07;;;;;;;51.22;18.38;;;;;;;;;;5035223;28;20098;-69
2023/05/13 03:32:41;;;;;;;48.30;16.67;;;;;;;;;;5025561;28;20040;-70
2023/05/13 03:35:08;;;;;;;52.50;18.33;;;;;;;;;;5049061;28;20079;-69
2023/05/13 03:37:36;;;;;;;52.20;17.77;;;;;;;;;;5034103;28;20541;-69
2023/05/13 03:40:04;;;;;;;56.95;19.90;;;;;;;;;;5027873;28;20038;-70
2023/05/13 03:42:32;;;;;;;80.20;19.73;;;;;;;;;;5034150;28;20133;-69
2023/05/13 03:45:01;;;;;;;63.63;19.20;;;;;;;;;;5033805;28;20094;-69
2023/05/13 03:47:29;;;;;;;52.65;18.55;;;;;;;;;;5044842;28;20041;-70
2023/05/13 03:49:59;;;;;;;36.22;17.58;;;;;;;;;;5023367;28;20136;-69
2023/05/13 03:52:27;;;;;;;65.43;18.25;;;;;;;;;;5027225;28;20478;-69
2023/05/13 03:54:53;;;;;;;57.45;17.60;;;;;;;;;;5048061;28;20079;-70
2023/05/13 03:57:20;;;;;;;133.65;20.65;;;;;;;;;;5044952;28;20041;-68
2023/05/13 03:59:47;;;;;;;64.82;17.98;;;;;;;;;;5046845;28;20071;-68
2023/05/13 04:02:13;;;;;;;74.38;24.55;;;;;;;;;;5048368;28;20053;-68
2023/05/13 04:04:40;;;;;;;60.50;19.95;;;;;;;;;;5046198;28;20111;-69
2023/05/13 04:07:07;;;;;;;64.95;17.77;;;;;;;;;;5025305;28;20045;-68
2023/05/13 04:09:36;;;;;;;73.75;17.73;;;;;;;;;;5032145;28;20092;-70
2023/05/13 04:12:02;;;;;;;44.67;15.85;;;;;;;;;;5046212;28;20201;-69
2023/05/13 04:14:29;;;;;;;57.38;15.07;;;;;;;;;;5033398;28;20452;-69
2023/05/13 04:16:56;;;;;;;46.53;14.00;;;;;;;;;;5047680;28;20029;-69
2023/05/13 04:19:22;;;;;;;46.30;13.23;;;;;;;;;;5006359;28;20041;-70
2023/05/13 04:21:49;;;;;;;33.63;10.88;;;;;;;;;;5033743;28;20490;-70
2023/05/13 04:24:16;;;;;;;38.10;10.95;;;;;;;;;;5044764;28;20116;-70
2023/05/13 04:26:42;;;;;;;42.25;10.95;;;;;;;;;;5024933;28;20098;-69
2023/05/13 04:29:09;;;;;;;28.95;9.63;;;;;;;;;;5046774;28;20095;-69
2023/05/13 04:31:36;;;;;;;42.38;10.32;;;;;;;;;;5045292;28;20417;-69
2023/05/13 04:34:02;;;;;;;43.33;10.25;;;;;;;;;;5043764;28;20043;-70
2023/05/13 04:36:30;;;;;;;80.00;13.70;;;;;;;;;;5030327;28;20378;-70
2023/05/13 04:38:56;;;;;;;129.13;16.30;;;;;;;;;;5047495;28;20053;-69
2023/05/13 04:41:23;;;;;;;37.85;9.95;;;;;;;;;;5045552;28;20038;-70
2023/05/13 04:43:50;;;;;;;47.67;11.95;;;;;;;;;;5027710;28;20128;-70
2023/05/13 04:46:16;;;;;;;35.03;10.85;;;;;;;;;;5044371;28;20144;-69
2023/05/13 04:48:47;;;;;;;45.80;11.30;;;;;;;;;;5032963;28;20057;-70
2023/05/13 04:51:15;;;;;;;39.13;11.10;;;;;;;;;;5043986;28;20037;-70
2023/05/13 04:53:42;;;;;;;47.70;10.98;;;;;;;;;;5031883;28;20049;-70
2023/05/13 04:56:08;;;;;;;40.97;10.45;;;;;;;;;;5030260;28;20040;-69
2023/05/13 04:58:36;;;;;;;53.22;10.57;;;;;;;;;;5045463;28;20042;-71
2023/05/13 05:01:02;;;;;;;41.13;9.25;;;;;;;;;;5032849;28;20036;-70
2023/05/13 05:03:29;;;;;;;47.25;10.07;;;;;;;;;;5030940;28;20140;-70
2023/05/13 05:05:58;;;;;;;34.65;9.10;;;;;;;;;;5050385;28;20124;-70
2023/05/13 05:08:24;;;;;;;30.30;8.32;;;;;;;;;;5045623;28;20124;-69
2023/05/13 05:10:52;;;;;;;37.47;9.93;;;;;;;;;;5043900;28;20065;-69
2023/05/13 05:13:19;;;;;;;47.78;9.45;;;;;;;;;;5023308;28;20087;-70
2023/05/13 05:15:45;;;;;;;29.60;8.40;;;;;;;;;;5033054;28;20335;-71
2023/05/13 05:18:13;;;;;;;20.38;7.40;;;;;;;;;;5031195;28;20142;-70
2023/05/13 05:20:43;;;;;;;30.05;7.97;;;;;;;;;;5030242;28;20049;-69
2023/05/13 05:23:14;;;;;;;25.20;8.02;;;;;;;;;;5048017;28;20044;-70
2023/05/13 05:25:40;;;;;;;30.90;8.70;;;;;;;;;;5029576;28;20119;-70
2023/05/13 05:28:08;;;;;;;45.30;9.45;;;;;;;;;;5046107;28;20533;-70
2023/05/13 05:30:38;;;;;;;65.75;10.02;;;;;;;;;;5030295;28;20049;-71
2023/05/13 05:33:11;;;;;;;;;;;;;;;;;;5034051;28;20041;-69
2023/05/13 05:35:39;;;;;;;29.50;8.23;;;;;;;;;;5032934;28;19917;-69
2023/05/13 05:38:08;;;;;;;38.20;8.68;;;;;;;;;;5036369;28;20041;-69
2023/05/13 05:40:36;;;;;;;30.15;8.60;;;;;;;;;;5028416;28;20090;-70
2023/05/13 05:43:03;;;;;;;33.08;8.98;;;;;;;;;;5029655;28;20048;-70
2023/05/13 05:45:29;;;;;;;66.75;10.55;;;;;;;;;;5047016;28;20063;-70
2023/05/13 05:47:56;;;;;;;1159.57;145.63;;;;;;;;;;5029360;22;20158;-87
2023/05/13 05:50:23;;;;;;;1087.88;133.93;;;;;;;;;;4941081;28;20517;-88
2023/05/13 05:52:50;;;;;;;1216.22;154.50;;;;;;;;;;4946032;28;20172;-89
2023/05/13 05:55:16;;;;;;;1106.13;138.05;;;;;;;;;;4938789;28;20098;-89
2023/05/13 05:57:43;;;;;;;1266.10;162.85;;;;;;;;;;4957472;28;20048;-89
2023/05/13 06:00:10;;;;;;;1111.53;137.43;;;;;;;;;;4950846;28;20910;-89
2023/05/13 06:02:43;;;;;;;1132.47;142.15;;;;;;;;;;4953812;28;20058;-89
2023/05/13 06:05:11;;;;;;;1055.72;129.05;;;;;;;;;;4949244;28;20044;-89
2023/05/13 06:07:39;;;;;;;1240.40;157.55;;;;;;;;;;4952424;28;20033;-89
2023/05/13 06:10:06;;;;;;;1161.60;145.45;;;;;;;;;;4946962;28;20109;-88
2023/05/13 06:12:34;;;;;;;1238.20;159.95;;;;;;;;;;4955871;28;20982;-88
2023/05/13 06:15:00;;;;;;;1090.60;129.00;;;;;;;;;;4958041;28;20076;-89
2023/05/13 06:17:27;;;;;;;1118.93;138.10;;;;;;;;;;4964908;28;20032;-88
2023/05/13 06:19:54;;;;;;;1176.00;149.02;;;;;;;;;;4954764;28;20097;-88
2023/05/13 06:22:20;;;;;;;1163.63;145.52;;;;;;;;;;4955737;28;20439;-87
2023/05/13 06:24:47;;;;;;;1246.72;161.30;;;;;;;;;;4965629;28;20057;-87
2023/05/13 06:27:13;;;;;;;1258.80;149.23;;;;;;;;;;4949084;28;20059;-87
2023/05/13 06:29:41;;;;;;;1229.07;155.85;;;;;;;;;;4936049;28;20055;-87
2023/05/13 06:32:07;;;;;;;1185.15;148.77;;;;;;;;;;4959045;28;20044;-87
2023/05/13 06:34:34;;;;;;;1004.80;120.63;;;;;;;;;;4958450;28;21006;-87
2023/05/13 06:37:01;;;;;;;1093.75;133.35;;;;;;;;;;4964345;28;20899;-88
2023/05/13 06:39:28;;;;;;;1380.90;178.98;;;;;;;;;;4945018;28;21171;-88
2023/05/13 06:41:55;;;;;;;1117.50;135.40;;;;;;;;;;4951540;28;20040;-87
2023/05/13 06:44:25;;;;;;;1106.70;134.73;;;;;;;;;;4952729;28;20047;-87
2023/05/13 06:46:53;;;;;;;1188.50;149.27;;;;;;;;;;4951850;28;20210;-88
2023/05/13 06:49:20;;;;;;;1104.10;135.95;;;;;;;;;;4971763;28;20138;-88
2023/05/13 06:51:47;;;;;;;1489.25;199.32;;;;;;;;;;4961623;28;21060;-88
2023/05/13 06:54:13;;;;;;;1075.47;132.82;;;;;;;;;;4971680;28;20051;-88
2023/05/13 06:56:40;;;;;;;1139.47;140.48;;;;;;;;;;4961649;28;20044;-87
2023/05/13 06:59:06;;;;;;;1029.00;123.75;;;;;;;;;;4952487;28;20045;-88
2023/05/13 07:01:33;;;;;;;1255.97;160.75;;;;;;;;;;4967588;28;20212;-88
2023/05/13 07:04:00;;;;;;;1143.88;139.90;;;;;;;;;;4956330;28;20051;-88
2023/05/13 07:06:26;;;;;;;1150.43;142.20;;;;;;;;;;4967515;28;20098;-88
2023/05/13 07:08:53;;;;;;;927.05;114.45;;;;;;;;;;4964148;28;20106;-91
2023/05/13 07:11:20;;;;;;;957.40;113.55;;;;;;;;;;4958326;28;20097;-91
2023/05/13 07:13:46;;;;;;;1149.72;146.55;;;;;;;;;;4960700;28;20045;-90
2023/05/13 07:16:13;;;;;;;979.92;118.85;;;;;;;;;;4974530;28;20106;-88
2023/05/13 07:18:40;;;;;;;116.80;14.30;;;;;;;;;;5025081;28;20475;-85
2023/05/13 07:21:06;;;;;;;1122.53;138.55;;;;;;;;;;4964550;28;20040;-86
2023/05/13 07:23:34;;;;;;;1143.45;143.73;;;;;;;;;;4959714;28;20036;-87
2023/05/13 07:26:00;;;;;;;1243.43;159.48;;;;;;;;;;4960940;28;20951;-87
2023/05/13 07:28:27;;;;;;;1138.57;173.60;;;;;;;;;;4968037;28;21001;-87
2023/05/13 07:30:53;;;;;;;1261.45;233.15;;;;;;;;;;4968688;28;21065;-87
2023/05/13 07:33:20;;;;;;;1149.80;177.52;;;;;;;;;;4970166;28;21222;-87
2023/05/13 07:35:46;;;;;;;1153.68;162.30;;;;;;;;;;4972737;28;20920;-87
2023/05/13 07:38:13;;;;;;;1200.20;164.43;;;;;;;;;;4971088;28;20952;-88
2023/05/13 07:40:40;;;;;;;825.95;108.88;;;;;;;;;;5007722;28;20483;-88
2023/05/13 07:43:07;;;;;;;176.52;33.13;;;;;;;;;;5054780;28;20147;-87
2023/05/13 07:45:33;;;;;;;720.20;110.68;;;;;;;;;;5033846;28;20055;-90
2023/05/13 07:48:00;;;;;;;866.00;124.97;;;;;;;;;;4992842;28;20052;-91
2023/05/13 07:50:27;;;;;;;831.00;128.73;;;;;;;;;;5001526;28;20032;-89
2023/05/13 07:52:53;;;;;;;705.25;103.72;;;;;;;;;;5002089;28;21170;-91
2023/05/13 07:55:20;;;;;;;878.88;147.40;;;;;;;;;;5010910;28;20043;-91
2023/05/13 07:57:47;;;;;;;796.38;136.52;;;;;;;;;;5012297;28;20058;-90
2023/05/13 08:00:14;;;;;;;1367.50;220.30;;;;;;;;;;4979771;28;20054;-90
2023/05/13 08:02:42;;;;;;;954.75;143.77;;;;;;;;;;4980825;28;20067;-91
2023/05/13 08:05:09;;;;;;;854.40;123.03;;;;;;;;;;4985906;28;20036;-91
2023/05/13 08:07:36;;;;;;;264.05;37.85;;;;;;;;;;5036080;28;20143;-90
2023/05/13 08:10:03;;;;;;;416.38;55.60;;;;;;;;;;5042395;28;20056;-90
2023/05/13 08:12:29;;;;;;;1179.72;169.75;;;;;;;;;;4994928;28;20036;-89
2023/05/13 08:14:56;;;;;;;1150.35;163.93;;;;;;;;;;4965321;28;20926;-89
2023/05/13 08:17:23;;;;;;;488.92;61.53;;;;;;;;;;4980565;28;20048;-90
2023/05/13 08:19:49;;;;;;;683.10;88.60;;;;;;;;;;5019010;28;20047;-90
2023/05/13 08:22:16;;;;;;;422.50;52.83;;;;;;;;;;5026855;28;20040;-88
2023/05/13 08:24:42;;;;;;;1067.88;155.77;;;;;;;;;;5014924;28;20039;-90
2023/05/13 08:27:09;;;;;;;1096.65;151.50;;;;;;;;;;4985291;28;20143;-88
2023/05/13 08:29:35;;;;;;;475.67;65.18;;;;;;;;;;5026033;28;20061;-91
2023/05/13 08:32:02;;;;;;;601.10;77.30;;;;;;;;;;5020296;28;20043;-90
2023/05/13 08:34:29;;;;;;;933.15;125.65;;;;;;;;;;4993843;28;20044;-90
2023/05/13 08:36:55;;;;;;;330.00;46.92;;;;;;;;;;5019160;28;20041;-92
2023/05/13 08:39:22;;;;;;;1103.15;146.40;;;;;;;;;;4981190;28;20039;-91
2023/05/13 08:41:50;;;;;;;971.10;128.90;;;;;;;;;;4982990;28;21179;-90
2023/05/13 08:44:17;;;;;;;995.25;134.02;;;;;;;;;;4973060;28;20661;-90
2023/05/13 08:46:48;;;;;;;1228.00;170.73;;;;;;;;;;4972846;28;20957;-90
2023/05/13 08:49:15;;;;;;;1102.68;148.52;;;;;;;;;;4978425;28;20048;-90
2023/05/13 08:51:43;;;;;;;1179.60;161.88;;;;;;;;;;4983357;28;20036;-90
2023/05/13 08:54:10;;;;;;;1033.13;137.88;;;;;;;;;;4983199;28;20078;-90
2023/05/13 08:56:36;;;;;;;1019.47;133.40;;;;;;;;;;4979349;28;20862;-90
2023/05/13 08:59:03;;;;;;;925.40;121.30;;;;;;;;;;4968886;28;20555;-90
2023/05/13 09:01:29;;;;;;;985.88;129.93;;;;;;;;;;4988173;28;20037;-89
2023/05/13 09:04:05;;;;;;;1011.70;133.82;;;;;;;;;;4989561;28;20036;-90
2023/05/13 09:06:31;;;;;;;1013.40;129.35;;;;;;;;;;4987319;28;20048;-90
2023/05/13 09:08:58;;;;;;;968.92;126.22;;;;;;;;;;4988633;28;20044;-90
2023/05/13 09:11:25;;;;;;;932.95;116.18;;;;;;;;;;4975217;28;20433;-90
2023/05/13 09:13:58;;;;;;;952.35;119.50;;;;;;;;;;4989011;28;20044;-90
2023/05/13 09:16:25;;;;;;;;;;;;;;;;;;4992135;28;20044;-90
2023/05/13 09:18:57;;;;;;;930.67;121.45;;;;;;;;;;4986737;28;19920;-91
2023/05/13 09:21:28;;;;;;;952.60;121.72;;;;;;;;;;4993053;28;20043;-90
2023/05/13 09:24:01;;;;;;;699.45;83.75;;;;;;;;;;5000226;28;20550;-90
2023/05/13 09:26:28;;;;;;;935.30;120.15;;;;;;;;;;5000683;28;20040;-91
2023/05/13 09:29:14;;;;;;;857.95;109.00;;;;;;;;;;5002015;28;20091;-90
2023/05/13 09:31:41;;;;;;;560.35;68.70;;;;;;;;;;5016193;28;20121;-91
2023/05/13 09:34:07;;;;;;;82.70;12.75;;;;;;;;;;5067026;28;20028;-88
2023/05/13 09:36:34;;;;;;;157.82;21.77;;;;;;;;;;5070188;28;20079;-91
2023/05/13 09:39:02;;;;;;;233.25;30.98;;;;;;;;;;5067725;28;20140;-90
2023/05/13 09:41:32;;;;;;;188.90;24.38;;;;;;;;;;5079931;28;20040;-90
2023/05/13 09:44:02;;;;;;;114.95;16.40;;;;;;;;;;5082150;28;20048;-90
2023/05/13 09:46:29;;;;;;;52.72;11.70;;;;;;;;;;5083189;28;20044;-89
2023/05/13 09:48:57;;;;;;;58.38;11.05;;;;;;;;;;5082133;28;20830;-89
2023/05/13 09:51:30;;;;;;;50.97;10.00;;;;;;;;;;5085888;28;20039;-91
2023/05/13 09:53:57;;;;;;;;;;;;;;;;;;5083074;28;20048;-89
2023/05/13 09:56:23;;;;;;;68.47;17.42;;;;;;;;;;5074101;28;19917;-88
2023/05/13 09:58:51;;;;;;;137.70;15.50;;;;;;;;;;5083431;28;20040;-89
2023/05/13 10:01:19;;;;;;;68.53;10.02;;;;;;;;;;5085170;28;20032;-89
2023/05/13 10:03:46;;;;;;;63.47;10.60;;;;;;;;;;5084559;28;20040;-88
2023/05/13 10:06:16;;;;;;;55.53;10.30;;;;;;;;;;5085076;28;20051;-88
2023/05/13 10:08:45;;;;;;;51.20;7.53;;;;;;;;;;5084695;28;20589;-88
2023/05/13 10:11:14;;;;;;;72.63;7.35;;;;;;;;;;5083367;28;20036;-88
2023/05/13 10:13:42;;;;;;;99.88;10.73;;;;;;;;;;5081507;28;20070;-88
2023/05/13 10:16:08;;;;;;;515.92;40.97;;;;;;;;;;5085453;28;20032;-88
2023/05/13 10:18:35;;;;;;;48.88;8.30;;;;;;;;;;5072524;28;20455;-88
2023/05/13 10:21:02;;;;;;;57.92;8.50;;;;;;;;;;5077134;28;20093;-88
2023/05/13 10:23:31;;;;;;;539.78;46.55;;;;;;;;;;5068012;28;20043;-90
2023/05/13 10:25:58;;;;;;;50.28;9.07;;;;;;;;;;5072648;28;20044;-88
2023/05/13 10:28:25;;;;;;;85.88;10.98;;;;;;;;;;5076762;28;20047;-89
2023/05/13 10:30:51;;;;;;;131.15;15.23;;;;;;;;;;5074073;28;20036;-90
2023/05/13 10:33:19;;;;;;;133.95;17.30;;;;;;;;;;5072276;28;20558;-89
2023/05/13 10:36:25;;;;;;;44.20;7.18;;;;;;;;;;5081183;28;20044;-88
2023/05/13 10:39:05;;;;;;;66.65;9.70;;;;;;;;;;4997258;28;20049;-88
2023/05/13 10:41:44;;;;;;;241.82;22.33;;;;;;;;;;4997651;28;20162;-90
2023/05/13 10:44:11;;;;;;;161.52;17.55;;;;;;;;;;4998838;28;20088;-88
2023/05/13 10:46:38;;;;;;;37.55;5.50;;;;;;;;;;4998336;28;20411;-87
2023/05/13 10:49:12;;;;;;;15.98;3.95;;;;;;;;;;5002280;28;20563;-88
2023/05/13 10:51:43;;;;;;;128.30;11.40;;;;;;;;;;5012783;28;20049;-88
2023/05/13 10:54:17;;;;;;;179.50;15.52;;;;;;;;;;5000498;28;20054;-87
2023/05/13 10:56:43;;;;;;;222.02;14.88;;;;;;;;;;4989169;28;20051;-87
2023/05/13 10:59:10;;;;;;;51.72;6.32;;;;;;;;;;4997671;28;20038;-88
2023/05/13 11:01:42;;;;;;;32.83;5.55;;;;;;;;;;4995788;28;20080;-88
2023/05/13 11:04:13;;;;;;;96.60;11.13;;;;;;;;;;5000001;28;20038;-88
2023/05/13 11:06:41;;;;;;;303.95;23.05;;;;;;;;;;5001084;28;20065;-88
2023/05/13 11:09:10;;;;;;;17.38;4.25;;;;;;;;;;5025281;28;20394;-88
2023/05/13 11:11:37;;;;;;;43.95;6.22;;;;;;;;;;5080524;28;20036;-88
2023/05/13 11:14:08;;;;;;;70.88;9.95;;;;;;;;;;5086866;28;20479;-88
2023/05/13 11:16:36;;;;;;;19.33;5.38;;;;;;;;;;5084087;28;20036;-89
2023/05/13 11:19:03;;;;;;;24.50;5.40;;;;;;;;;;5080166;28;20077;-88
2023/05/13 11:21:38;;;;;;;146.27;13.18;;;;;;;;;;5080480;28;20051;-94
2023/05/13 11:24:06;;;;;;;100.93;11.95;;;;;;;;;;5079516;28;20051;-88
2023/05/13 11:26:46;;;;;;;42.42;5.93;;;;;;;;;;5083567;28;20447;-92
2023/05/13 11:29:13;;;;;;;60.88;7.60;;;;;;;;;;5070272;28;20475;-89
2023/05/13 11:31:51;;;;;;;114.53;11.95;;;;;;;;;;5081263;28;20047;-89
2023/05/13 11:34:18;;;;;;;34.15;5.65;;;;;;;;;;5082671;28;20031;-88
2023/05/13 11:36:46;;;;;;;88.82;11.50;;;;;;;;;;5081686;28;20531;-88
2023/05/13 11:39:14;;;;;;;82.38;10.50;;;;;;;;;;5083622;28;20356;-88
2023/05/13 11:41:42;;;;;;;35.47;5.60;;;;;;;;;;5076143;28;20487;-87
2023/05/13 11:44:09;;;;;;;38.67;6.15;;;;;;;;;;5078400;28;20055;-87
2023/05/13 11:46:36;;;;;;;28.17;4.95;;;;;;;;;;5081195;28;20123;-87
2023/05/13 11:49:03;;;;;;;19.83;3.65;;;;;;;;;;5083355;28;20498;-87
2023/05/13 11:51:32;;;;;;;87.68;8.95;;;;;;;;;;5082689;28;20143;-87
2023/05/13 11:54:00;;;;;;;232.38;17.75;;;;;;;;;;5082464;28;20494;-87
2023/05/13 11:56:30;;;;;;;76.65;8.18;;;;;;;;;;5082342;28;20129;-87
2023/05/13 11:59:11;;;;;;;280.52;18.25;;;;;;;;;;5078606;28;20031;-87
2023/05/13 12:01:38;;;;;;;64.28;6.60;;;;;;;;;;5083285;28;20555;-87
2023/05/13 12:04:04;;;;;;;451.00;42.28;;;;;;;;;;5065662;28;20032;-88
2023/05/13 12:06:31;;;;;;;123.65;12.23;;;;;;;;;;5072371;28;20387;-88
2023/05/13 12:09:04;;;;;;;193.98;16.48;;;;;;;;;;5075451;28;20028;-88
2023/05/13 12:11:31;;;;;;;55.88;6.57;;;;;;;;;;5082362;28;20486;-88
2023/05/13 12:13:58;;;;;;;23.58;3.70;;;;;;;;;;5085062;28;20028;-88
2023/05/13 12:16:24;;;;;;;35.83;4.57;;;;;;;;;;5080340;28;20067;-89
2023/05/13 12:18:57;;;;;;;171.68;15.65;;;;;;;;;;5078345;28;20071;-88
2023/05/13 12:21:24;;;;;;;437.52;34.85;;;;;;;;;;5071150;28;20044;-88
2023/05/13 12:23:50;;;;;;;50.97;6.03;;;;;;;;;;5069630;28;20028;-88
2023/05/13 12:26:18;;;;;;;258.70;26.67;;;;;;;;;;5070613;28;20140;-88
2023/05/13 12:28:44;;;;;;;138.55;14.95;;;;;;;;;;5065724;28;20036;-89
2023/05/13 12:31:14;;;;;;;47.72;5.32;;;;;;;;;;5066991;28;20032;-89
2023/05/13 12:33:42;;;;;;;112.88;11.73;;;;;;;;;;5065397;28;20051;-89
2023/05/13 12:36:14;;;;;;;101.43;10.68;;;;;;;;;;5069060;28;20118;-91
2023/05/13 12:38:54;;;;;;;113.57;10.70;;;;;;;;;;5071540;28;20102;-89
2023/05/13 12:41:27;;;;;;;253.07;27.23;;;;;;;;;;5050117;28;20067;-89
2023/05/13 12:43:55;;;;;;;240.73;21.92;;;;;;;;;;5062678;28;20768;-89
2023/05/13 12:46:23;;;;;;;89.57;9.40;;;;;;;;;;5077518;28;20129;-89
2023/05/13 12:48:57;;;;;;;65.55;8.95;;;;;;;;;;5061585;28;20079;-88
2023/05/13 12:51:24;;;;;;;74.55;7.55;;;;;;;;;;5080965;28;20064;-89
2023/05/13 12:53:53;;;;;;;89.43;11.23;;;;;;;;;;5079785;28;20047;-89
2023/05/13 12:56:23;;;;;;;33.28;4.63;;;;;;;;;;5075688;28;20480;-89
2023/05/13 12:58:50;;;;;;;167.15;16.38;;;;;;;;;;5052445;28;20044;-90
2023/05/13 13:01:17;;;;;;;56.30;6.07;;;;;;;;;;5080396;28;20035;-88
2023/05/13 13:03:44;;;;;;;42.45;6.03;;;;;;;;;;5078159;28;20036;-89
2023/05/13 13:06:11;;;;;;;61.55;6.20;;;;;;;;;;5074439;28;20041;-88
2023/05/13 13:08:38;;;;;;;60.70;6.20;;;;;;;;;;5081618;28;20036;-88
2023/05/13 13:11:05;;;;;;;18.15;2.83;;;;;;;;;;5081543;28;20038;-89
2023/05/13 13:13:31;;;;;;;69.18;7.57;;;;;;;;;;5081152;28;20594;-88
2023/05/13 13:15:58;;;;;;;102.07;9.68;;;;;;;;;;5080791;28;20036;-88
2023/05/13 13:18:25;;;;;;;28.00;3.78;;;;;;;;;;5080712;28;20102;-88
2023/05/13 13:20:52;;;;;;;270.08;21.45;;;;;;;;;;5079076;28;20032;-89
2023/05/13 13:23:18;;;;;;;72.90;8.98;;;;;;;;;;5077476;28;20082;-89
2023/05/13 13:25:45;;;;;;;62.97;5.97;;;;;;;;;;5077632;28;20040;-88
2023/05/13 13:28:12;;;;;;;37.85;4.22;;;;;;;;;;5074534;28;20115;-88
2023/05/13 13:30:44;;;;;;;66.75;7.13;;;;;;;;;;5080363;28;20115;-88
2023/05/13 13:33:12;;;;;;;82.28;9.23;;;;;;;;;;5074285;28;20045;-88
2023/05/13 13:35:38;;;;;;;170.98;11.43;;;;;;;;;;5074928;28;20487;-88
2023/05/13 13:38:07;;;;;;;254.00;26.45;;;;;;;;;;5070790;28;20139;-88
2023/05/13 13:40:35;;;;;;;31.05;5.03;;;;;;;;;;5072759;28;20081;-88
2023/05/13 13:43:05;;;;;;;229.13;22.02;;;;;;;;;;5073803;28;20042;-89
2023/05/13 13:45:32;;;;;;;95.40;10.02;;;;;;;;;;5074442;28;20071;-88
2023/05/13 13:47:58;;;;;;;79.60;8.23;;;;;;;;;;5077176;28;20052;-88
2023/05/13 13:50:25;;;;;;;129.02;11.25;;;;;;;;;;5070667;28;20045;-88
2023/05/13 13:52:52;;;;;;;134.82;11.23;;;;;;;;;;5077562;28;20042;-88
2023/05/13 13:55:19;;;;;;;164.30;13.15;;;;;;;;;;5076575;28;20049;-88
2023/05/13 13:57:46;;;;;;;88.80;9.98;;;;;;;;;;5078133;28;20151;-88
2023/05/13 14:00:13;;;;;;;274.77;21.77;;;;;;;;;;5072509;28;20146;-90
2023/05/13 14:02:40;;;;;;;249.10;23.08;;;;;;;;;;5050295;28;20356;-91
2023/05/13 14:05:07;;;;;;;175.27;16.95;;;;;;;;;;5061926;28;20036;-88
2023/05/13 14:07:34;;;;;;;87.70;10.55;;;;;;;;;;5071015;28;20036;-88
2023/05/13 14:10:01;;;;;;;288.75;27.23;;;;;;;;;;5071333;28;20062;-88
2023/05/13 14:12:27;;;;;;;112.63;11.30;;;;;;;;;;5071061;28;20110;-87
2023/05/13 14:14:54;;;;;;;154.95;12.98;;;;;;;;;;5070661;28;20488;-89
2023/05/13 14:17:21;;;;;;;99.07;10.32;;;;;;;;;;5067382;28;20074;-89